sensor_id;sensor_type;location;lat;lon;timestamp;P1;durP1;ratioP1;P2;durP2;ratioP2
35550;SDS011;21655;46.056;13.616;2023-02-28T00:00:05;8.43;;;5.38;;
35550;SDS011;21655;46.056;13.616;2023-02-28T00:02:42;11.00;;;5.65;;
35550;SDS011;21655;46.056;13.616;2023-02-28T00:05:09;10.57;;;6.50;;
35550;SDS011;21655;46.056;13.616;2023-02-28T00:07:36;9.05;;;5.55;;
35550;SDS011;21655;46.056;13.616;2023-02-28T00:10:02;9.80;;;5.50;;
35550;SDS011;21655;46.056;13.616;2023-02-28T00:12:32;9.88;;;5.60;;
35550;SDS011;21655;46.056;13.616;2023-02-28T00:14:59;10.00;;;6.32;;
35550;SDS011;21655;46.056;13.616;2023-02-28T00:17:24;10.00;;;5.90;;
35550;SDS011;21655;46.056;13.616;2023-02-28T00:19:51;9.82;;;5.93;;
35550;SDS011;21655;46.056;13.616;2023-02-28T00:22:17;9.65;;;5.78;;
35550;SDS011;21655;46.056;13.616;2023-02-28T00:24:44;11.02;;;5.85;;
35550;SDS011;21655;46.056;13.616;2023-02-28T00:27:10;9.55;;;5.43;;
35550;SDS011;21655;46.056;13.616;2023-02-28T00:29:36;8.50;;;5.15;;
35550;SDS011;21655;46.056;13.616;2023-02-28T00:32:03;7.18;;;5.07;;
35550;SDS011;21655;46.056;13.616;2023-02-28T00:34:29;14.07;;;5.85;;
35550;SDS011;21655;46.056;13.616;2023-02-28T00:36:54;13.23;;;5.93;;
35550;SDS011;21655;46.056;13.616;2023-02-28T00:39:20;8.95;;;5.38;;
35550;SDS011;21655;46.056;13.616;2023-02-28T00:41:45;8.18;;;4.72;;
35550;SDS011;21655;46.056;13.616;2023-02-28T00:44:11;9.55;;;5.60;;
35550;SDS011;21655;46.056;13.616;2023-02-28T00:46:37;9.38;;;5.50;;
35550;SDS011;21655;46.056;13.616;2023-02-28T00:49:02;10.25;;;6.30;;
35550;SDS011;21655;46.056;13.616;2023-02-28T00:51:27;11.32;;;5.63;;
35550;SDS011;21655;46.056;13.616;2023-02-28T00:53:53;9.48;;;5.35;;
35550;SDS011;21655;46.056;13.616;2023-02-28T00:56:19;10.18;;;5.55;;
35550;SDS011;21655;46.056;13.616;2023-02-28T00:58:45;10.07;;;5.35;;
35550;SDS011;21655;46.056;13.616;2023-02-28T01:01:10;10.75;;;5.43;;
35550;SDS011;21655;46.056;13.616;2023-02-28T01:03:36;9.45;;;5.90;;
35550;SDS011;21655;46.056;13.616;2023-02-28T01:06:01;11.32;;;5.32;;
35550;SDS011;21655;46.056;13.616;2023-02-28T01:08:27;10.18;;;5.35;;
35550;SDS011;21655;46.056;13.616;2023-02-28T01:10:54;9.77;;;5.82;;
35550;SDS011;21655;46.056;13.616;2023-02-28T01:13:19;9.65;;;5.70;;
35550;SDS011;21655;46.056;13.616;2023-02-28T01:15:46;8.95;;;5.85;;
35550;SDS011;21655;46.056;13.616;2023-02-28T01:18:17;8.63;;;5.15;;
35550;SDS011;21655;46.056;13.616;2023-02-28T01:20:43;13.27;;;5.88;;
35550;SDS011;21655;46.056;13.616;2023-02-28T01:23:09;9.13;;;5.32;;
35550;SDS011;21655;46.056;13.616;2023-02-28T01:25:35;8.75;;;5.80;;
35550;SDS011;21655;46.056;13.616;2023-02-28T01:28:01;12.55;;;5.80;;
35550;SDS011;21655;46.056;13.616;2023-02-28T01:30:27;11.60;;;5.43;;
35550;SDS011;21655;46.056;13.616;2023-02-28T01:32:52;9.15;;;5.18;;
35550;SDS011;21655;46.056;13.616;2023-02-28T01:35:18;10.43;;;5.68;;
35550;SDS011;21655;46.056;13.616;2023-02-28T01:37:44;11.02;;;5.60;;
35550;SDS011;21655;46.056;13.616;2023-02-28T01:40:10;14.15;;;5.85;;
35550;SDS011;21655;46.056;13.616;2023-02-28T01:42:36;12.20;;;5.55;;
35550;SDS011;21655;46.056;13.616;2023-02-28T01:47:32;10.32;;;5.28;;
35550;SDS011;21655;46.056;13.616;2023-02-28T01:50:02;10.73;;;5.82;;
35550;SDS011;21655;46.056;13.616;2023-02-28T01:52:31;10.82;;;6.10;;
35550;SDS011;21655;46.056;13.616;2023-02-28T01:54:58;11.55;;;6.07;;
35550;SDS011;21655;46.056;13.616;2023-02-28T01:57:28;10.00;;;6.00;;
35550;SDS011;21655;46.056;13.616;2023-02-28T02:00:04;12.50;;;6.18;;
35550;SDS011;21655;46.056;13.616;2023-02-28T02:02:33;13.70;;;6.07;;
35550;SDS011;21655;46.056;13.616;2023-02-28T02:05:09;11.68;;;6.57;;
35550;SDS011;21655;46.056;13.616;2023-02-28T02:07:39;13.65;;;5.97;;
35550;SDS011;21655;46.056;13.616;2023-02-28T02:10:15;13.55;;;5.68;;
35550;SDS011;21655;46.056;13.616;2023-02-28T02:18:23;9.90;;;5.75;;
35550;SDS011;21655;46.056;13.616;2023-02-28T02:36:03;13.88;;;6.35;;
35550;SDS011;21655;46.056;13.616;2023-02-28T02:44:43;12.18;;;6.75;;
35550;SDS011;21655;46.056;13.616;2023-02-28T02:47:16;11.13;;;6.68;;
35550;SDS011;21655;46.056;13.616;2023-02-28T02:49:46;18.23;;;6.40;;
35550;SDS011;21655;46.056;13.616;2023-02-28T02:52:18;13.13;;;6.82;;
35550;SDS011;21655;46.056;13.616;2023-02-28T02:54:48;10.38;;;5.88;;
35550;SDS011;21655;46.056;13.616;2023-02-28T02:57:25;14.38;;;6.45;;
35550;SDS011;21655;46.056;13.616;2023-02-28T02:59:55;13.32;;;6.30;;
35550;SDS011;21655;46.056;13.616;2023-02-28T03:02:22;14.57;;;7.28;;
35550;SDS011;21655;46.056;13.616;2023-02-28T03:04:50;9.15;;;6.25;;
35550;SDS011;21655;46.056;13.616;2023-02-28T03:07:18;13.05;;;6.78;;
35550;SDS011;21655;46.056;13.616;2023-02-28T03:09:54;13.73;;;6.68;;
35550;SDS011;21655;46.056;13.616;2023-02-28T03:12:41;13.77;;;7.00;;
35550;SDS011;21655;46.056;13.616;2023-02-28T03:15:37;12.40;;;6.18;;
35550;SDS011;21655;46.056;13.616;2023-02-28T03:18:17;10.60;;;6.78;;
35550;SDS011;21655;46.056;13.616;2023-02-28T03:21:42;16.40;;;6.82;;
35550;SDS011;21655;46.056;13.616;2023-02-28T03:23:56;11.40;;;6.40;;
35550;SDS011;21655;46.056;13.616;2023-02-28T03:26:29;11.75;;;6.88;;
35550;SDS011;21655;46.056;13.616;2023-02-28T03:31:58;16.08;;;6.95;;
35550;SDS011;21655;46.056;13.616;2023-02-28T03:34:29;14.52;;;7.00;;
35550;SDS011;21655;46.056;13.616;2023-02-28T03:37:00;12.70;;;7.07;;
35550;SDS011;21655;46.056;13.616;2023-02-28T03:42:38;15.25;;;7.28;;
35550;SDS011;21655;46.056;13.616;2023-02-28T03:45:19;11.43;;;6.88;;
35550;SDS011;21655;46.056;13.616;2023-02-28T03:47:57;13.05;;;6.95;;
35550;SDS011;21655;46.056;13.616;2023-02-28T03:50:44;11.27;;;6.50;;
35550;SDS011;21655;46.056;13.616;2023-02-28T03:53:24;17.63;;;8.13;;
35550;SDS011;21655;46.056;13.616;2023-02-28T03:58:55;14.07;;;7.65;;
35550;SDS011;21655;46.056;13.616;2023-02-28T04:01:33;13.25;;;7.13;;
35550;SDS011;21655;46.056;13.616;2023-02-28T04:04:10;15.65;;;7.28;;
35550;SDS011;21655;46.056;13.616;2023-02-28T04:06:38;13.52;;;6.97;;
35550;SDS011;21655;46.056;13.616;2023-02-28T04:09:04;14.98;;;7.68;;
35550;SDS011;21655;46.056;13.616;2023-02-28T04:14:01;15.43;;;7.00;;
35550;SDS011;21655;46.056;13.616;2023-02-28T04:16:28;18.02;;;7.93;;
35550;SDS011;21655;46.056;13.616;2023-02-28T04:18:54;13.80;;;7.57;;
35550;SDS011;21655;46.056;13.616;2023-02-28T04:23:54;13.00;;;7.30;;
35550;SDS011;21655;46.056;13.616;2023-02-28T04:26:20;12.80;;;6.80;;
35550;SDS011;21655;46.056;13.616;2023-02-28T04:28:45;12.88;;;7.28;;
35550;SDS011;21655;46.056;13.616;2023-02-28T04:31:11;17.60;;;8.00;;
35550;SDS011;21655;46.056;13.616;2023-02-28T04:33:36;12.95;;;8.25;;
35550;SDS011;21655;46.056;13.616;2023-02-28T04:36:03;13.50;;;7.82;;
35550;SDS011;21655;46.056;13.616;2023-02-28T04:38:36;14.98;;;7.57;;
35550;SDS011;21655;46.056;13.616;2023-02-28T04:41:03;15.35;;;7.90;;
35550;SDS011;21655;46.056;13.616;2023-02-28T04:43:29;17.23;;;8.43;;
35550;SDS011;21655;46.056;13.616;2023-02-28T04:45:56;15.23;;;8.15;;
35550;SDS011;21655;46.056;13.616;2023-02-28T04:48:24;12.82;;;7.43;;
35550;SDS011;21655;46.056;13.616;2023-02-28T04:50:50;17.98;;;8.57;;
35550;SDS011;21655;46.056;13.616;2023-02-28T04:53:17;13.40;;;7.75;;
35550;SDS011;21655;46.056;13.616;2023-02-28T04:55:42;15.00;;;8.23;;
35550;SDS011;21655;46.056;13.616;2023-02-28T04:58:08;14.93;;;7.85;;
35550;SDS011;21655;46.056;13.616;2023-02-28T05:00:34;13.48;;;8.02;;
35550;SDS011;21655;46.056;13.616;2023-02-28T05:02:59;16.75;;;8.88;;
35550;SDS011;21655;46.056;13.616;2023-02-28T05:05:25;14.13;;;8.45;;
35550;SDS011;21655;46.056;13.616;2023-02-28T05:07:50;17.58;;;8.73;;
35550;SDS011;21655;46.056;13.616;2023-02-28T05:10:16;18.92;;;9.00;;
35550;SDS011;21655;46.056;13.616;2023-02-28T05:12:41;14.82;;;8.40;;
35550;SDS011;21655;46.056;13.616;2023-02-28T05:15:08;14.73;;;8.60;;
35550;SDS011;21655;46.056;13.616;2023-02-28T05:17:37;16.40;;;8.52;;
35550;SDS011;21655;46.056;13.616;2023-02-28T05:20:03;17.98;;;7.97;;
35550;SDS011;21655;46.056;13.616;2023-02-28T05:22:30;15.63;;;7.97;;
35550;SDS011;21655;46.056;13.616;2023-02-28T05:24:55;16.92;;;8.43;;
35550;SDS011;21655;46.056;13.616;2023-02-28T05:27:21;17.70;;;8.95;;
35550;SDS011;21655;46.056;13.616;2023-02-28T05:29:46;16.60;;;9.25;;
35550;SDS011;21655;46.056;13.616;2023-02-28T05:32:12;16.52;;;8.82;;
35550;SDS011;21655;46.056;13.616;2023-02-28T05:34:39;19.77;;;9.50;;
35550;SDS011;21655;46.056;13.616;2023-02-28T05:37:05;19.38;;;9.95;;
35550;SDS011;21655;46.056;13.616;2023-02-28T05:39:32;14.02;;;8.07;;
35550;SDS011;21655;46.056;13.616;2023-02-28T05:41:58;20.95;;;9.25;;
35550;SDS011;21655;46.056;13.616;2023-02-28T05:44:23;16.42;;;9.35;;
35550;SDS011;21655;46.056;13.616;2023-02-28T05:46:49;16.70;;;8.70;;
35550;SDS011;21655;46.056;13.616;2023-02-28T05:49:14;17.83;;;8.57;;
35550;SDS011;21655;46.056;13.616;2023-02-28T05:51:40;21.08;;;9.00;;
35550;SDS011;21655;46.056;13.616;2023-02-28T05:54:06;19.27;;;9.55;;
35550;SDS011;21655;46.056;13.616;2023-02-28T05:56:32;16.83;;;8.48;;
35550;SDS011;21655;46.056;13.616;2023-02-28T05:58:59;18.67;;;9.10;;
35550;SDS011;21655;46.056;13.616;2023-02-28T06:01:32;15.80;;;9.07;;
35550;SDS011;21655;46.056;13.616;2023-02-28T06:04:00;18.77;;;9.98;;
35550;SDS011;21655;46.056;13.616;2023-02-28T06:06:26;19.25;;;9.65;;
35550;SDS011;21655;46.056;13.616;2023-02-28T06:08:52;19.25;;;9.88;;
35550;SDS011;21655;46.056;13.616;2023-02-28T06:11:18;22.98;;;9.70;;
35550;SDS011;21655;46.056;13.616;2023-02-28T06:13:45;19.50;;;10.07;;
35550;SDS011;21655;46.056;13.616;2023-02-28T06:16:11;27.65;;;10.15;;
35550;SDS011;21655;46.056;13.616;2023-02-28T06:18:36;17.20;;;9.40;;
35550;SDS011;21655;46.056;13.616;2023-02-28T06:21:02;23.42;;;10.13;;
35550;SDS011;21655;46.056;13.616;2023-02-28T06:23:28;21.75;;;10.10;;
35550;SDS011;21655;46.056;13.616;2023-02-28T06:25:53;22.17;;;10.25;;
35550;SDS011;21655;46.056;13.616;2023-02-28T06:28:23;20.42;;;9.82;;
35550;SDS011;21655;46.056;13.616;2023-02-28T06:30:49;20.33;;;9.82;;
35550;SDS011;21655;46.056;13.616;2023-02-28T06:33:14;19.02;;;9.38;;
35550;SDS011;21655;46.056;13.616;2023-02-28T06:35:42;23.77;;;10.40;;
35550;SDS011;21655;46.056;13.616;2023-02-28T06:38:09;18.90;;;8.88;;
35550;SDS011;21655;46.056;13.616;2023-02-28T06:40:35;17.90;;;8.55;;
35550;SDS011;21655;46.056;13.616;2023-02-28T06:43:02;21.63;;;9.38;;
35550;SDS011;21655;46.056;13.616;2023-02-28T06:45:28;19.52;;;9.65;;
35550;SDS011;21655;46.056;13.616;2023-02-28T06:47:53;25.98;;;10.65;;
35550;SDS011;21655;46.056;13.616;2023-02-28T06:50:19;21.77;;;10.57;;
35550;SDS011;21655;46.056;13.616;2023-02-28T06:52:45;17.73;;;10.15;;
35550;SDS011;21655;46.056;13.616;2023-02-28T06:55:11;22.50;;;10.40;;
35550;SDS011;21655;46.056;13.616;2023-02-28T06:57:36;20.77;;;10.55;;
35550;SDS011;21655;46.056;13.616;2023-02-28T07:00:06;21.48;;;10.32;;
35550;SDS011;21655;46.056;13.616;2023-02-28T07:02:37;19.00;;;8.85;;
35550;SDS011;21655;46.056;13.616;2023-02-28T07:05:03;21.98;;;8.40;;
35550;SDS011;21655;46.056;13.616;2023-02-28T07:07:29;23.17;;;9.90;;
35550;SDS011;21655;46.056;13.616;2023-02-28T07:09:55;18.55;;;9.20;;
35550;SDS011;21655;46.056;13.616;2023-02-28T07:12:21;19.75;;;10.10;;
35550;SDS011;21655;46.056;13.616;2023-02-28T07:14:47;21.35;;;10.57;;
35550;SDS011;21655;46.056;13.616;2023-02-28T07:17:12;18.30;;;9.60;;
35550;SDS011;21655;46.056;13.616;2023-02-28T07:19:38;19.80;;;10.10;;
35550;SDS011;21655;46.056;13.616;2023-02-28T07:22:04;17.48;;;9.98;;
35550;SDS011;21655;46.056;13.616;2023-02-28T07:24:30;20.05;;;10.70;;
35550;SDS011;21655;46.056;13.616;2023-02-28T07:26:56;19.42;;;10.57;;
35550;SDS011;21655;46.056;13.616;2023-02-28T07:29:22;22.60;;;11.82;;
35550;SDS011;21655;46.056;13.616;2023-02-28T07:31:47;23.20;;;10.02;;
35550;SDS011;21655;46.056;13.616;2023-02-28T07:34:13;27.40;;;10.73;;
35550;SDS011;21655;46.056;13.616;2023-02-28T07:36:39;21.15;;;9.88;;
35550;SDS011;21655;46.056;13.616;2023-02-28T07:39:04;21.45;;;10.68;;
35550;SDS011;21655;46.056;13.616;2023-02-28T07:41:30;23.27;;;9.45;;
35550;SDS011;21655;46.056;13.616;2023-02-28T07:43:58;17.42;;;9.32;;
35550;SDS011;21655;46.056;13.616;2023-02-28T07:46:24;23.85;;;10.18;;
35550;SDS011;21655;46.056;13.616;2023-02-28T07:48:50;25.27;;;9.80;;
35550;SDS011;21655;46.056;13.616;2023-02-28T07:51:18;17.48;;;9.93;;
35550;SDS011;21655;46.056;13.616;2023-02-28T07:53:43;20.70;;;9.35;;
35550;SDS011;21655;46.056;13.616;2023-02-28T07:56:09;19.05;;;9.90;;
35550;SDS011;21655;46.056;13.616;2023-02-28T07:58:36;18.55;;;9.50;;
35550;SDS011;21655;46.056;13.616;2023-02-28T08:01:05;18.85;;;9.52;;
35550;SDS011;21655;46.056;13.616;2023-02-28T08:03:35;18.58;;;8.95;;
35550;SDS011;21655;46.056;13.616;2023-02-28T08:06:02;18.17;;;9.75;;
35550;SDS011;21655;46.056;13.616;2023-02-28T08:08:32;25.05;;;10.77;;
35550;SDS011;21655;46.056;13.616;2023-02-28T08:10:58;23.88;;;9.85;;
35550;SDS011;21655;46.056;13.616;2023-02-28T08:13:28;20.25;;;9.55;;
35550;SDS011;21655;46.056;13.616;2023-02-28T08:15:54;18.52;;;8.70;;
35550;SDS011;21655;46.056;13.616;2023-02-28T08:18:21;18.70;;;8.77;;
35550;SDS011;21655;46.056;13.616;2023-02-28T08:20:47;19.20;;;9.50;;
35550;SDS011;21655;46.056;13.616;2023-02-28T08:23:13;16.95;;;9.30;;
35550;SDS011;21655;46.056;13.616;2023-02-28T08:25:38;16.85;;;8.43;;
35550;SDS011;21655;46.056;13.616;2023-02-28T08:28:04;17.08;;;8.82;;
35550;SDS011;21655;46.056;13.616;2023-02-28T08:30:30;18.42;;;9.02;;
35550;SDS011;21655;46.056;13.616;2023-02-28T08:32:55;18.33;;;9.73;;
35550;SDS011;21655;46.056;13.616;2023-02-28T08:35:21;15.10;;;8.23;;
35550;SDS011;21655;46.056;13.616;2023-02-28T08:37:47;18.58;;;8.63;;
35550;SDS011;21655;46.056;13.616;2023-02-28T08:40:14;21.13;;;9.55;;
35550;SDS011;21655;46.056;13.616;2023-02-28T08:42:43;13.13;;;8.00;;
35550;SDS011;21655;46.056;13.616;2023-02-28T08:45:10;28.58;;;9.02;;
35550;SDS011;21655;46.056;13.616;2023-02-28T08:47:36;18.48;;;9.95;;
35550;SDS011;21655;46.056;13.616;2023-02-28T08:50:01;16.50;;;8.77;;
35550;SDS011;21655;46.056;13.616;2023-02-28T08:52:27;20.02;;;9.98;;
35550;SDS011;21655;46.056;13.616;2023-02-28T08:54:53;16.33;;;8.75;;
35550;SDS011;21655;46.056;13.616;2023-02-28T08:57:18;17.02;;;9.35;;
35550;SDS011;21655;46.056;13.616;2023-02-28T08:59:44;20.67;;;9.77;;
35550;SDS011;21655;46.056;13.616;2023-02-28T09:02:12;14.85;;;8.05;;
35550;SDS011;21655;46.056;13.616;2023-02-28T09:04:39;15.98;;;8.43;;
35550;SDS011;21655;46.056;13.616;2023-02-28T09:07:04;16.02;;;8.82;;
35550;SDS011;21655;46.056;13.616;2023-02-28T09:09:29;19.92;;;8.30;;
35550;SDS011;21655;46.056;13.616;2023-02-28T09:11:55;18.60;;;8.30;;
35550;SDS011;21655;46.056;13.616;2023-02-28T09:14:21;14.57;;;8.10;;
35550;SDS011;21655;46.056;13.616;2023-02-28T09:16:47;17.27;;;8.30;;
35550;SDS011;21655;46.056;13.616;2023-02-28T09:19:13;15.52;;;7.68;;
35550;SDS011;21655;46.056;13.616;2023-02-28T09:21:38;14.88;;;7.88;;
35550;SDS011;21655;46.056;13.616;2023-02-28T09:24:04;15.77;;;8.38;;
35550;SDS011;21655;46.056;13.616;2023-02-28T09:26:29;17.52;;;8.18;;
35550;SDS011;21655;46.056;13.616;2023-02-28T09:28:56;13.75;;;7.97;;
35550;SDS011;21655;46.056;13.616;2023-02-28T09:31:24;19.02;;;8.57;;
35550;SDS011;21655;46.056;13.616;2023-02-28T09:33:52;15.45;;;8.05;;
35550;SDS011;21655;46.056;13.616;2023-02-28T09:36:20;19.80;;;8.23;;
35550;SDS011;21655;46.056;13.616;2023-02-28T09:38:46;16.77;;;9.20;;
35550;SDS011;21655;46.056;13.616;2023-02-28T09:43:44;17.23;;;9.00;;
35550;SDS011;21655;46.056;13.616;2023-02-28T09:48:56;15.45;;;8.05;;
35550;SDS011;21655;46.056;13.616;2023-02-28T09:54:08;13.48;;;8.40;;
35550;SDS011;21655;46.056;13.616;2023-02-28T09:56:43;14.90;;;8.48;;
35550;SDS011;21655;46.056;13.616;2023-02-28T10:02:14;18.65;;;9.57;;
35550;SDS011;21655;46.056;13.616;2023-02-28T10:04:44;15.07;;;8.38;;
35550;SDS011;21655;46.056;13.616;2023-02-28T10:09:55;12.50;;;7.50;;
35550;SDS011;21655;46.056;13.616;2023-02-28T10:12:23;15.95;;;8.00;;
35550;SDS011;21655;46.056;13.616;2023-02-28T10:14:51;12.85;;;7.53;;
35550;SDS011;21655;46.056;13.616;2023-02-28T10:17:20;12.88;;;7.57;;
35550;SDS011;21655;46.056;13.616;2023-02-28T10:22:40;14.88;;;7.93;;
35550;SDS011;21655;46.056;13.616;2023-02-28T10:25:18;14.80;;;8.07;;
35550;SDS011;21655;46.056;13.616;2023-02-28T10:27:49;16.52;;;8.07;;
35550;SDS011;21655;46.056;13.616;2023-02-28T10:30:18;20.20;;;8.52;;
35550;SDS011;21655;46.056;13.616;2023-02-28T10:32:49;19.02;;;7.93;;
35550;SDS011;21655;46.056;13.616;2023-02-28T10:35:19;13.13;;;7.43;;
35550;SDS011;21655;46.056;13.616;2023-02-28T10:37:50;12.18;;;8.13;;
35550;SDS011;21655;46.056;13.616;2023-02-28T10:45:25;14.00;;;8.15;;
35550;SDS011;21655;46.056;13.616;2023-02-28T10:47:59;16.67;;;7.53;;
35550;SDS011;21655;46.056;13.616;2023-02-28T10:50:30;18.38;;;8.07;;
35550;SDS011;21655;46.056;13.616;2023-02-28T10:55:57;19.42;;;9.32;;
35550;SDS011;21655;46.056;13.616;2023-02-28T10:58:42;17.00;;;9.23;;
35550;SDS011;21655;46.056;13.616;2023-02-28T11:07:20;17.45;;;9.18;;
35550;SDS011;21655;46.056;13.616;2023-02-28T11:09:50;17.23;;;8.23;;
35550;SDS011;21655;46.056;13.616;2023-02-28T11:12:20;15.25;;;8.50;;
35550;SDS011;21655;46.056;13.616;2023-02-28T11:14:55;14.60;;;8.20;;
35550;SDS011;21655;46.056;13.616;2023-02-28T11:17:26;15.60;;;9.23;;
35550;SDS011;21655;46.056;13.616;2023-02-28T11:20:03;13.00;;;8.23;;
35550;SDS011;21655;46.056;13.616;2023-02-28T11:22:32;14.25;;;8.82;;
35550;SDS011;21655;46.056;13.616;2023-02-28T11:25:25;15.20;;;8.38;;
35550;SDS011;21655;46.056;13.616;2023-02-28T11:27:51;16.13;;;9.20;;
35550;SDS011;21655;46.056;13.616;2023-02-28T11:32:51;18.25;;;9.50;;
35550;SDS011;21655;46.056;13.616;2023-02-28T11:35:17;16.40;;;8.80;;
35550;SDS011;21655;46.056;13.616;2023-02-28T11:37:49;16.52;;;9.07;;
35550;SDS011;21655;46.056;13.616;2023-02-28T11:40:17;19.55;;;8.95;;
35550;SDS011;21655;46.056;13.616;2023-02-28T11:46:06;17.58;;;9.68;;
35550;SDS011;21655;46.056;13.616;2023-02-28T11:53:50;15.43;;;8.65;;
35550;SDS011;21655;46.056;13.616;2023-02-28T12:10:31;12.15;;;7.22;;
35550;SDS011;21655;46.056;13.616;2023-02-28T12:13:26;15.10;;;8.02;;
35550;SDS011;21655;46.056;13.616;2023-02-28T12:18:57;12.73;;;7.57;;
35550;SDS011;21655;46.056;13.616;2023-02-28T12:27:26;11.68;;;7.07;;
35550;SDS011;21655;46.056;13.616;2023-02-28T12:32:29;14.57;;;7.63;;
35550;SDS011;21655;46.056;13.616;2023-02-28T12:37:43;10.43;;;6.03;;
35550;SDS011;21655;46.056;13.616;2023-02-28T12:40:13;9.73;;;6.45;;
35550;SDS011;21655;46.056;13.616;2023-02-28T12:42:48;15.70;;;6.60;;
35550;SDS011;21655;46.056;13.616;2023-02-28T12:45:22;11.75;;;5.88;;
35550;SDS011;21655;46.056;13.616;2023-02-28T12:47:57;9.10;;;5.78;;
35550;SDS011;21655;46.056;13.616;2023-02-28T12:50:31;12.43;;;6.25;;
35550;SDS011;21655;46.056;13.616;2023-02-28T12:53:00;9.93;;;6.18;;
35550;SDS011;21655;46.056;13.616;2023-02-28T12:58:43;12.52;;;6.05;;
35550;SDS011;21655;46.056;13.616;2023-02-28T13:09:32;11.80;;;5.72;;
35550;SDS011;21655;46.056;13.616;2023-02-28T13:11:58;9.45;;;5.30;;
35550;SDS011;21655;46.056;13.616;2023-02-28T13:19:35;12.88;;;5.78;;
35550;SDS011;21655;46.056;13.616;2023-02-28T13:22:15;10.52;;;5.65;;
35550;SDS011;21655;46.056;13.616;2023-02-28T13:25:00;9.48;;;5.80;;
35550;SDS011;21655;46.056;13.616;2023-02-28T13:27:33;9.50;;;5.93;;
35550;SDS011;21655;46.056;13.616;2023-02-28T13:33:23;11.65;;;5.88;;
35550;SDS011;21655;46.056;13.616;2023-02-28T13:39:44;15.20;;;6.35;;
35550;SDS011;21655;46.056;13.616;2023-02-28T13:44:09;10.68;;;5.90;;
35550;SDS011;21655;46.056;13.616;2023-02-28T13:49:27;10.60;;;5.85;;
35550;SDS011;21655;46.056;13.616;2023-02-28T13:52:02;9.85;;;5.20;;
35550;SDS011;21655;46.056;13.616;2023-02-28T14:06:09;8.98;;;5.05;;
35550;SDS011;21655;46.056;13.616;2023-02-28T14:08:44;13.23;;;6.07;;
35550;SDS011;21655;46.056;13.616;2023-02-28T14:14:02;9.88;;;5.45;;
35550;SDS011;21655;46.056;13.616;2023-02-28T14:16:39;9.15;;;5.55;;
35550;SDS011;21655;46.056;13.616;2023-02-28T14:19:24;13.75;;;6.45;;
35550;SDS011;21655;46.056;13.616;2023-02-28T14:22:09;10.15;;;6.07;;
35550;SDS011;21655;46.056;13.616;2023-02-28T14:25:06;9.63;;;5.03;;
35550;SDS011;21655;46.056;13.616;2023-02-28T14:33:01;10.18;;;5.32;;
35550;SDS011;21655;46.056;13.616;2023-02-28T14:35:39;10.02;;;5.97;;
35550;SDS011;21655;46.056;13.616;2023-02-28T14:38:13;11.07;;;5.85;;
35550;SDS011;21655;46.056;13.616;2023-02-28T14:40:44;11.93;;;6.57;;
35550;SDS011;21655;46.056;13.616;2023-02-28T14:43:20;10.90;;;5.72;;
35550;SDS011;21655;46.056;13.616;2023-02-28T14:45:54;9.60;;;5.85;;
35550;SDS011;21655;46.056;13.616;2023-02-28T14:48:22;10.35;;;5.80;;
35550;SDS011;21655;46.056;13.616;2023-02-28T14:50:54;8.75;;;5.80;;
35550;SDS011;21655;46.056;13.616;2023-02-28T14:53:23;9.00;;;5.72;;
35550;SDS011;21655;46.056;13.616;2023-02-28T14:55:54;12.23;;;5.90;;
35550;SDS011;21655;46.056;13.616;2023-02-28T15:00:51;12.23;;;6.43;;
35550;SDS011;21655;46.056;13.616;2023-02-28T15:03:23;11.10;;;6.28;;
35550;SDS011;21655;46.056;13.616;2023-02-28T15:05:55;9.63;;;5.95;;
35550;SDS011;21655;46.056;13.616;2023-02-28T15:08:22;14.07;;;6.38;;
35550;SDS011;21655;46.056;13.616;2023-02-28T15:10:56;13.05;;;5.88;;
35550;SDS011;21655;46.056;13.616;2023-02-28T15:13:28;12.43;;;6.40;;
35550;SDS011;21655;46.056;13.616;2023-02-28T15:21:23;14.80;;;7.22;;
35550;SDS011;21655;46.056;13.616;2023-02-28T15:24:00;11.15;;;6.90;;
35550;SDS011;21655;46.056;13.616;2023-02-28T15:26:59;14.60;;;6.22;;
35550;SDS011;21655;46.056;13.616;2023-02-28T15:29:29;14.85;;;6.80;;
35550;SDS011;21655;46.056;13.616;2023-02-28T15:32:03;13.93;;;6.80;;
35550;SDS011;21655;46.056;13.616;2023-02-28T15:34:40;15.63;;;7.05;;
35550;SDS011;21655;46.056;13.616;2023-02-28T15:39:52;11.68;;;6.18;;
35550;SDS011;21655;46.056;13.616;2023-02-28T15:42:20;11.77;;;6.50;;
35550;SDS011;21655;46.056;13.616;2023-02-28T15:44:47;54.83;;;10.07;;
35550;SDS011;21655;46.056;13.616;2023-02-28T15:47:26;13.60;;;6.90;;
35550;SDS011;21655;46.056;13.616;2023-02-28T15:50:01;11.25;;;6.20;;
35550;SDS011;21655;46.056;13.616;2023-02-28T15:52:42;11.23;;;5.95;;
35550;SDS011;21655;46.056;13.616;2023-02-28T15:55:19;11.73;;;6.63;;
35550;SDS011;21655;46.056;13.616;2023-02-28T15:57:48;10.15;;;6.15;;
35550;SDS011;21655;46.056;13.616;2023-02-28T16:00:19;12.20;;;6.35;;
35550;SDS011;21655;46.056;13.616;2023-02-28T16:02:46;13.00;;;6.68;;
35550;SDS011;21655;46.056;13.616;2023-02-28T16:05:18;16.63;;;7.50;;
35550;SDS011;21655;46.056;13.616;2023-02-28T16:07:52;16.05;;;7.53;;
35550;SDS011;21655;46.056;13.616;2023-02-28T16:10:20;15.05;;;6.82;;
35550;SDS011;21655;46.056;13.616;2023-02-28T16:12:50;15.70;;;7.30;;
35550;SDS011;21655;46.056;13.616;2023-02-28T16:17:43;14.40;;;8.02;;
35550;SDS011;21655;46.056;13.616;2023-02-28T16:20:14;14.65;;;7.50;;
35550;SDS011;21655;46.056;13.616;2023-02-28T16:22:41;19.45;;;7.63;;
35550;SDS011;21655;46.056;13.616;2023-02-28T16:25:10;15.93;;;7.50;;
35550;SDS011;21655;46.056;13.616;2023-02-28T16:27:40;14.10;;;7.45;;
35550;SDS011;21655;46.056;13.616;2023-02-28T16:30:09;14.65;;;7.22;;
35550;SDS011;21655;46.056;13.616;2023-02-28T16:32:44;12.75;;;7.18;;
35550;SDS011;21655;46.056;13.616;2023-02-28T16:35:11;16.58;;;7.90;;
35550;SDS011;21655;46.056;13.616;2023-02-28T16:37:39;12.48;;;7.00;;
35550;SDS011;21655;46.056;13.616;2023-02-28T16:40:05;13.02;;;7.15;;
35550;SDS011;21655;46.056;13.616;2023-02-28T16:42:31;17.02;;;9.10;;
35550;SDS011;21655;46.056;13.616;2023-02-28T16:44:56;18.63;;;11.43;;
35550;SDS011;21655;46.056;13.616;2023-02-28T16:47:23;23.75;;;11.20;;
35550;SDS011;21655;46.056;13.616;2023-02-28T16:49:49;42.40;;;21.95;;
35550;SDS011;21655;46.056;13.616;2023-02-28T16:52:15;20.50;;;11.85;;
35550;SDS011;21655;46.056;13.616;2023-02-28T16:54:40;28.10;;;15.07;;
35550;SDS011;21655;46.056;13.616;2023-02-28T16:57:13;23.15;;;11.40;;
35550;SDS011;21655;46.056;13.616;2023-02-28T16:59:45;20.13;;;12.05;;
35550;SDS011;21655;46.056;13.616;2023-02-28T17:02:14;24.70;;;15.25;;
35550;SDS011;21655;46.056;13.616;2023-02-28T17:04:44;17.38;;;10.23;;
35550;SDS011;21655;46.056;13.616;2023-02-28T17:07:13;15.45;;;9.63;;
35550;SDS011;21655;46.056;13.616;2023-02-28T17:09:41;19.38;;;9.52;;
35550;SDS011;21655;46.056;13.616;2023-02-28T17:12:08;17.98;;;9.57;;
35550;SDS011;21655;46.056;13.616;2023-02-28T17:14:34;22.17;;;9.55;;
35550;SDS011;21655;46.056;13.616;2023-02-28T17:17:00;21.92;;;12.45;;
35550;SDS011;21655;46.056;13.616;2023-02-28T17:19:26;20.55;;;10.07;;
35550;SDS011;21655;46.056;13.616;2023-02-28T17:21:51;15.98;;;9.30;;
35550;SDS011;21655;46.056;13.616;2023-02-28T17:24:17;18.08;;;10.35;;
35550;SDS011;21655;46.056;13.616;2023-02-28T17:26:43;17.58;;;9.20;;